Aérodrome :
LOGIN :

S'inscrire | Disclaimer

   EN    FR    IT 

 










Légende :    VFR   VFR Marginal   IFR   IFR Intensif   IFR Très Intensif
Visi : 
Plafond : 
>= 8 km
>= 3000ft
5 à 8 km
1000 à 3000 ft
1500m à 5 km
500 à 1000 ft
800 à 1500m
200 à 500 ft
< 800m
< 200 ft
Symboles :   Orages  Brouillard  Fortes neiges  Fortes précipitations  Vent > 20 kt
SIGMETs :   Divers  Orages  Givrage  Turbulence  Onde Orograph.  Cendres Volcan.







- Altitude de l'aérodrome : 726 ft
- Code IATA : DIJ
- Voir les cartes d'approche


LFSD - Dijon

DERNIER METAR :
  • 181930Z AUTO 10002KT 1100 1000 R35/1400U BCFG VV/// 00/00 Q1016

METARs EXPIRÉS :
  • 181900Z AUTO 03001KT 1100 0700 R35/1900D BCFG VV/// 00/00 Q1017
  • 181830Z AUTO 29001KT 0650 0500 R35/1100U FG VV/// 00/00 Q1017
  • 181800Z AUTO VRB01KT 0350 R35/0700U FG VV/// 00/M00 Q1017
  • 181730Z AUTO VRB02KT 0300 0250 R35/0350N FG VV/// 00/00 Q1017
  • 181700Z AUTO 00000KT 0300 0250 R35/0400N FG VV/// 00/00 Q1017
  • 181630Z AUTO 00000KT 0350 R35/0450N FG VV/// 01/01 Q1017

Prévision TAF périmée.
Pas de NOTAMs connus pour ce terrain.



MET'MAP, la Météo Aéronautique d'un coup d'oeil ! - Copyright ORBIFLY Décembre 2007 - Disclaimer

ORBIFLY MET'MAP TEAM :

Programmation & Développement : Alexandra Zaïnal
Conception & Développement : Baudouin d'Aumeries
Co-Programmation & Développement : Marc-Olivier Méhu
Soutien technique & logistique : Manuel Goepfert

Contact : metmap@orbifly.com




SOURCES & CREDITS :

   NOAA